sensor_id;sensor_type;location;lat;lon;timestamp;temperature;humidity
12370;DHT22;6249;52.128;9.986;2023-03-13T00:00:42;8.50;99.90
12370;DHT22;6249;52.128;9.986;2023-03-13T00:04:05;8.20;99.90
12370;DHT22;6249;52.128;9.986;2023-03-13T00:07:28;8.10;99.90
12370;DHT22;6249;52.128;9.986;2023-03-13T00:10:48;8.20;99.90
12370;DHT22;6249;52.128;9.986;2023-03-13T00:14:09;8.20;99.90
12370;DHT22;6249;52.128;9.986;2023-03-13T00:17:32;8.20;99.90
12370;DHT22;6249;52.128;9.986;2023-03-13T00:21:07;8.40;99.90
12370;DHT22;6249;52.128;9.986;2023-03-13T00:24:28;8.70;99.90
12370;DHT22;6249;52.128;9.986;2023-03-13T00:27:48;8.70;99.90
12370;DHT22;6249;52.128;9.986;2023-03-13T00:31:17;8.80;99.90
12370;DHT22;6249;52.128;9.986;2023-03-13T00:34:37;8.80;99.90
12370;DHT22;6249;52.128;9.986;2023-03-13T00:37:58;9.10;99.90
12370;DHT22;6249;52.128;9.986;2023-03-13T00:41:24;9.20;99.90
12370;DHT22;6249;52.128;9.986;2023-03-13T00:44:44;8.90;99.90
12370;DHT22;6249;52.128;9.986;2023-03-13T00:48:05;9.00;99.90
12370;DHT22;6249;52.128;9.986;2023-03-13T00:51:26;9.10;99.90
12370;DHT22;6249;52.128;9.986;2023-03-13T00:54:49;9.10;99.90
12370;DHT22;6249;52.128;9.986;2023-03-13T00:58:09;9.10;99.90
12370;DHT22;6249;52.128;9.986;2023-03-13T01:01:33;9.00;99.90
12370;DHT22;6249;52.128;9.986;2023-03-13T01:04:58;8.90;99.90
12370;DHT22;6249;52.128;9.986;2023-03-13T01:08:19;9.10;99.90
12370;DHT22;6249;52.128;9.986;2023-03-13T01:11:41;9.00;99.90
12370;DHT22;6249;52.128;9.986;2023-03-13T01:15:07;9.20;99.90
12370;DHT22;6249;52.128;9.986;2023-03-13T01:18:31;9.20;99.90
12370;DHT22;6249;52.128;9.986;2023-03-13T01:21:52;9.10;99.90
12370;DHT22;6249;52.128;9.986;2023-03-13T01:25:15;9.00;99.90
12370;DHT22;6249;52.128;9.986;2023-03-13T01:28:37;9.00;99.90
12370;DHT22;6249;52.128;9.986;2023-03-13T01:31:58;8.90;99.90
12370;DHT22;6249;52.128;9.986;2023-03-13T01:35:19;8.90;99.90
12370;DHT22;6249;52.128;9.986;2023-03-13T01:38:42;9.00;99.90
12370;DHT22;6249;52.128;9.986;2023-03-13T01:42:05;9.00;99.90
12370;DHT22;6249;52.128;9.986;2023-03-13T01:46:30;9.00;99.90
12370;DHT22;6249;52.128;9.986;2023-03-13T01:49:30;9.10;99.90
12370;DHT22;6249;52.128;9.986;2023-03-13T01:52:55;9.40;99.90
12370;DHT22;6249;52.128;9.986;2023-03-13T01:56:23;9.00;99.90
12370;DHT22;6249;52.128;9.986;2023-03-13T01:59:58;8.90;99.90
12370;DHT22;6249;52.128;9.986;2023-03-13T02:03:20;9.00;99.90
12370;DHT22;6249;52.128;9.986;2023-03-13T02:06:46;8.90;99.90
12370;DHT22;6249;52.128;9.986;2023-03-13T02:10:10;8.90;99.90
12370;DHT22;6249;52.128;9.986;2023-03-13T02:13:33;8.70;99.90
12370;DHT22;6249;52.128;9.986;2023-03-13T02:16:54;8.70;99.90
12370;DHT22;6249;52.128;9.986;2023-03-13T02:20:20;8.60;99.90
12370;DHT22;6249;52.128;9.986;2023-03-13T02:23:52;8.50;99.90
12370;DHT22;6249;52.128;9.986;2023-03-13T02:27:15;8.50;99.90
12370;DHT22;6249;52.128;9.986;2023-03-13T02:30:41;8.50;99.90
12370;DHT22;6249;52.128;9.986;2023-03-13T02:34:03;8.40;99.90
12370;DHT22;6249;52.128;9.986;2023-03-13T02:37:26;8.40;99.90
12370;DHT22;6249;52.128;9.986;2023-03-13T02:40:49;8.60;99.90
12370;DHT22;6249;52.128;9.986;2023-03-13T02:44:12;8.60;99.90
12370;DHT22;6249;52.128;9.986;2023-03-13T02:47:33;8.60;99.90
12370;DHT22;6249;52.128;9.986;2023-03-13T02:50:53;8.60;99.90
12370;DHT22;6249;52.128;9.986;2023-03-13T02:54:22;8.70;99.90
12370;DHT22;6249;52.128;9.986;2023-03-13T02:57:45;8.70;99.90
12370;DHT22;6249;52.128;9.986;2023-03-13T03:01:08;8.90;99.90
12370;DHT22;6249;52.128;9.986;2023-03-13T03:04:29;8.90;99.90
12370;DHT22;6249;52.128;9.986;2023-03-13T03:07:52;8.90;99.90
12370;DHT22;6249;52.128;9.986;2023-03-13T03:11:12;9.30;99.90
12370;DHT22;6249;52.128;9.986;2023-03-13T03:14:35;8.90;99.90
12370;DHT22;6249;52.128;9.986;2023-03-13T03:17:58;9.30;99.90
12370;DHT22;6249;52.128;9.986;2023-03-13T03:21:19;9.00;99.90
12370;DHT22;6249;52.128;9.986;2023-03-13T03:24:43;8.90;99.90
12370;DHT22;6249;52.128;9.986;2023-03-13T03:28:06;9.20;99.90
12370;DHT22;6249;52.128;9.986;2023-03-13T03:31:26;8.90;99.90
12370;DHT22;6249;52.128;9.986;2023-03-13T03:34:47;8.90;99.90
12370;DHT22;6249;52.128;9.986;2023-03-13T03:38:07;8.80;99.90
12370;DHT22;6249;52.128;9.986;2023-03-13T03:41:28;8.70;99.90
12370;DHT22;6249;52.128;9.986;2023-03-13T03:44:51;9.00;99.90
12370;DHT22;6249;52.128;9.986;2023-03-13T03:48:14;9.50;99.90
12370;DHT22;6249;52.128;9.986;2023-03-13T03:51:34;9.10;99.90
12370;DHT22;6249;52.128;9.986;2023-03-13T03:54:57;9.10;99.90
12370;DHT22;6249;52.128;9.986;2023-03-13T03:58:21;9.00;99.90
12370;DHT22;6249;52.128;9.986;2023-03-13T04:01:42;9.00;99.90
12370;DHT22;6249;52.128;9.986;2023-03-13T04:05:03;9.00;99.90
12370;DHT22;6249;52.128;9.986;2023-03-13T04:08:24;9.00;99.90
12370;DHT22;6249;52.128;9.986;2023-03-13T04:11:47;9.10;99.90
12370;DHT22;6249;52.128;9.986;2023-03-13T04:15:11;9.10;99.90
12370;DHT22;6249;52.128;9.986;2023-03-13T04:18:32;9.10;99.90
12370;DHT22;6249;52.128;9.986;2023-03-13T04:21:52;9.10;99.90
12370;DHT22;6249;52.128;9.986;2023-03-13T04:25:13;9.10;99.90
12370;DHT22;6249;52.128;9.986;2023-03-13T04:28:33;9.60;99.90
12370;DHT22;6249;52.128;9.986;2023-03-13T04:31:54;9.30;99.90
12370;DHT22;6249;52.128;9.986;2023-03-13T04:35:19;9.80;99.90
12370;DHT22;6249;52.128;9.986;2023-03-13T04:38:42;9.50;99.90
12370;DHT22;6249;52.128;9.986;2023-03-13T04:42:03;9.30;99.90
12370;DHT22;6249;52.128;9.986;2023-03-13T04:45:24;9.10;99.90
12370;DHT22;6249;52.128;9.986;2023-03-13T04:48:44;9.40;99.90
12370;DHT22;6249;52.128;9.986;2023-03-13T04:52:06;8.90;99.90
12370;DHT22;6249;52.128;9.986;2023-03-13T04:55:26;8.90;99.90
12370;DHT22;6249;52.128;9.986;2023-03-13T04:58:47;8.90;99.90
12370;DHT22;6249;52.128;9.986;2023-03-13T05:02:11;8.80;99.90
12370;DHT22;6249;52.128;9.986;2023-03-13T05:05:37;8.80;99.90
12370;DHT22;6249;52.128;9.986;2023-03-13T05:09:00;8.80;99.90
12370;DHT22;6249;52.128;9.986;2023-03-13T05:12:20;9.00;99.90
12370;DHT22;6249;52.128;9.986;2023-03-13T05:15:41;8.90;99.90
12370;DHT22;6249;52.128;9.986;2023-03-13T05:19:04;8.90;99.90
12370;DHT22;6249;52.128;9.986;2023-03-13T05:22:24;9.40;99.90
12370;DHT22;6249;52.128;9.986;2023-03-13T05:25:45;9.00;99.90
12370;DHT22;6249;52.128;9.986;2023-03-13T05:29:05;9.40;99.90
12370;DHT22;6249;52.128;9.986;2023-03-13T05:32:28;9.00;99.90
12370;DHT22;6249;52.128;9.986;2023-03-13T05:35:49;9.10;99.90
12370;DHT22;6249;52.128;9.986;2023-03-13T05:39:09;9.00;99.90
12370;DHT22;6249;52.128;9.986;2023-03-13T05:42:32;9.00;99.90
12370;DHT22;6249;52.128;9.986;2023-03-13T05:45:55;9.00;99.90
12370;DHT22;6249;52.128;9.986;2023-03-13T05:49:16;9.10;99.90
12370;DHT22;6249;52.128;9.986;2023-03-13T05:52:36;9.10;99.90
12370;DHT22;6249;52.128;9.986;2023-03-13T05:55:57;9.20;99.90
12370;DHT22;6249;52.128;9.986;2023-03-13T05:59:18;9.20;99.90
12370;DHT22;6249;52.128;9.986;2023-03-13T06:02:40;9.20;99.90
12370;DHT22;6249;52.128;9.986;2023-03-13T06:06:01;9.30;99.90
12370;DHT22;6249;52.128;9.986;2023-03-13T06:09:22;9.40;99.90
12370;DHT22;6249;52.128;9.986;2023-03-13T06:12:43;9.40;99.90
12370;DHT22;6249;52.128;9.986;2023-03-13T06:16:04;10.40;99.90
12370;DHT22;6249;52.128;9.986;2023-03-13T06:19:24;9.60;99.90
12370;DHT22;6249;52.128;9.986;2023-03-13T06:22:45;9.70;99.90
12370;DHT22;6249;52.128;9.986;2023-03-13T06:26:05;9.80;99.90
12370;DHT22;6249;52.128;9.986;2023-03-13T06:29:28;10.30;99.90
12370;DHT22;6249;52.128;9.986;2023-03-13T06:32:53;9.70;99.90
12370;DHT22;6249;52.128;9.986;2023-03-13T06:36:14;9.80;99.90
12370;DHT22;6249;52.128;9.986;2023-03-13T06:39:37;9.90;99.90
12370;DHT22;6249;52.128;9.986;2023-03-13T06:42:58;9.80;99.90
12370;DHT22;6249;52.128;9.986;2023-03-13T06:46:20;9.90;99.90
12370;DHT22;6249;52.128;9.986;2023-03-13T06:49:41;9.80;99.90
12370;DHT22;6249;52.128;9.986;2023-03-13T06:53:02;9.90;99.90
12370;DHT22;6249;52.128;9.986;2023-03-13T06:56:22;10.00;99.90
12370;DHT22;6249;52.128;9.986;2023-03-13T06:59:43;10.10;99.90
12370;DHT22;6249;52.128;9.986;2023-03-13T07:03:06;10.20;99.90
12370;DHT22;6249;52.128;9.986;2023-03-13T07:06:27;10.20;99.90
12370;DHT22;6249;52.128;9.986;2023-03-13T07:09:49;10.20;99.90
12370;DHT22;6249;52.128;9.986;2023-03-13T07:13:10;10.30;99.90
12370;DHT22;6249;52.128;9.986;2023-03-13T07:16:31;10.30;99.90
12370;DHT22;6249;52.128;9.986;2023-03-13T07:19:54;10.30;99.90
12370;DHT22;6249;52.128;9.986;2023-03-13T07:23:17;10.30;99.90
12370;DHT22;6249;52.128;9.986;2023-03-13T07:26:37;10.40;99.90
12370;DHT22;6249;52.128;9.986;2023-03-13T07:29:58;10.50;99.90
12370;DHT22;6249;52.128;9.986;2023-03-13T07:33:19;10.50;99.90
12370;DHT22;6249;52.128;9.986;2023-03-13T07:36:41;10.70;99.90
12370;DHT22;6249;52.128;9.986;2023-03-13T07:40:03;10.90;99.90
12370;DHT22;6249;52.128;9.986;2023-03-13T07:43:26;11.10;99.90
12370;DHT22;6249;52.128;9.986;2023-03-13T07:46:48;11.20;99.90
12370;DHT22;6249;52.128;9.986;2023-03-13T07:50:12;11.30;99.90
12370;DHT22;6249;52.128;9.986;2023-03-13T07:53:34;11.30;99.90
12370;DHT22;6249;52.128;9.986;2023-03-13T07:56:54;11.70;99.90
12370;DHT22;6249;52.128;9.986;2023-03-13T08:00:18;11.30;99.90
12370;DHT22;6249;52.128;9.986;2023-03-13T08:03:39;11.20;99.90
12370;DHT22;6249;52.128;9.986;2023-03-13T08:06:59;11.30;99.90
12370;DHT22;6249;52.128;9.986;2023-03-13T08:10:20;11.10;99.90
12370;DHT22;6249;52.128;9.986;2023-03-13T08:13:41;11.30;99.90
12370;DHT22;6249;52.128;9.986;2023-03-13T08:17:02;11.30;99.90
12370;DHT22;6249;52.128;9.986;2023-03-13T08:20:23;11.30;99.90
12370;DHT22;6249;52.128;9.986;2023-03-13T08:23:46;11.40;99.90
12370;DHT22;6249;52.128;9.986;2023-03-13T08:27:07;11.20;99.90
12370;DHT22;6249;52.128;9.986;2023-03-13T08:30:28;11.30;99.90
12370;DHT22;6249;52.128;9.986;2023-03-13T08:33:51;11.40;99.90
12370;DHT22;6249;52.128;9.986;2023-03-13T08:37:15;11.40;99.90
12370;DHT22;6249;52.128;9.986;2023-03-13T08:40:35;11.50;99.90
12370;DHT22;6249;52.128;9.986;2023-03-13T08:43:58;11.40;99.90
12370;DHT22;6249;52.128;9.986;2023-03-13T08:47:23;11.40;99.90
12370;DHT22;6249;52.128;9.986;2023-03-13T08:50:46;11.60;99.90
12370;DHT22;6249;52.128;9.986;2023-03-13T08:54:07;11.70;99.90
12370;DHT22;6249;52.128;9.986;2023-03-13T08:57:28;11.70;99.90
12370;DHT22;6249;52.128;9.986;2023-03-13T09:00:48;11.80;99.90
12370;DHT22;6249;52.128;9.986;2023-03-13T09:04:09;12.00;99.90
12370;DHT22;6249;52.128;9.986;2023-03-13T09:07:30;12.10;99.90
12370;DHT22;6249;52.128;9.986;2023-03-13T09:10:58;12.00;99.90
12370;DHT22;6249;52.128;9.986;2023-03-13T09:14:19;12.20;99.90
12370;DHT22;6249;52.128;9.986;2023-03-13T09:17:42;12.30;99.90
12370;DHT22;6249;52.128;9.986;2023-03-13T09:21:10;12.70;99.90
12370;DHT22;6249;52.128;9.986;2023-03-13T09:24:31;12.70;99.90
12370;DHT22;6249;52.128;9.986;2023-03-13T09:27:54;12.90;99.90
12370;DHT22;6249;52.128;9.986;2023-03-13T09:31:22;12.90;99.90
12370;DHT22;6249;52.128;9.986;2023-03-13T09:34:43;13.10;99.90
12370;DHT22;6249;52.128;9.986;2023-03-13T09:38:03;13.10;99.90
12370;DHT22;6249;52.128;9.986;2023-03-13T09:45:14;13.30;99.90
12370;DHT22;6249;52.128;9.986;2023-03-13T09:48:39;11.90;99.90
12370;DHT22;6249;52.128;9.986;2023-03-13T09:52:22;13.80;99.90
12370;DHT22;6249;52.128;9.986;2023-03-13T09:55:44;13.90;99.90
12370;DHT22;6249;52.128;9.986;2023-03-13T09:59:19;13.90;99.90
12370;DHT22;6249;52.128;9.986;2023-03-13T10:03:28;13.90;99.90
12370;DHT22;6249;52.128;9.986;2023-03-13T10:06:42;13.90;99.90
12370;DHT22;6249;52.128;9.986;2023-03-13T10:10:13;13.90;99.90
12370;DHT22;6249;52.128;9.986;2023-03-13T10:13:48;13.90;99.90
12370;DHT22;6249;52.128;9.986;2023-03-13T10:20:52;13.90;99.90
12370;DHT22;6249;52.128;9.986;2023-03-13T10:27:43;14.10;99.90
12370;DHT22;6249;52.128;9.986;2023-03-13T10:31:31;14.10;99.90
12370;DHT22;6249;52.128;9.986;2023-03-13T10:34:57;14.10;99.90
12370;DHT22;6249;52.128;9.986;2023-03-13T10:38:21;14.00;99.90
12370;DHT22;6249;52.128;9.986;2023-03-13T10:41:41;14.10;99.90
12370;DHT22;6249;52.128;9.986;2023-03-13T10:45:03;14.10;99.90
12370;DHT22;6249;52.128;9.986;2023-03-13T10:48:28;14.00;99.90
12370;DHT22;6249;52.128;9.986;2023-03-13T10:51:58;14.10;99.90
12370;DHT22;6249;52.128;9.986;2023-03-13T10:55:22;14.00;99.90
12370;DHT22;6249;52.128;9.986;2023-03-13T10:58:51;14.00;99.90
12370;DHT22;6249;52.128;9.986;2023-03-13T11:05:44;14.20;99.90
12370;DHT22;6249;52.128;9.986;2023-03-13T11:12:25;14.70;99.90
12370;DHT22;6249;52.128;9.986;2023-03-13T11:15:51;15.20;99.90
12370;DHT22;6249;52.128;9.986;2023-03-13T11:22:47;17.20;99.90
12370;DHT22;6249;52.128;9.986;2023-03-13T11:37:14;16.00;99.90
12370;DHT22;6249;52.128;9.986;2023-03-13T12:03:21;16.10;99.90
12370;DHT22;6249;52.128;9.986;2023-03-13T12:06:54;16.60;99.90
12370;DHT22;6249;52.128;9.986;2023-03-13T12:10:25;16.70;99.90
12370;DHT22;6249;52.128;9.986;2023-03-13T12:14:00;16.90;99.90
12370;DHT22;6249;52.128;9.986;2023-03-13T12:17:34;17.10;99.90
12370;DHT22;6249;52.128;9.986;2023-03-13T12:24:27;17.90;99.90
12370;DHT22;6249;52.128;9.986;2023-03-13T12:27:55;17.80;99.90
12370;DHT22;6249;52.128;9.986;2023-03-13T12:35:52;17.60;99.90
12370;DHT22;6249;52.128;9.986;2023-03-13T12:42:44;17.80;99.90
12370;DHT22;6249;52.128;9.986;2023-03-13T13:01:01;21.20;97.10
12370;DHT22;6249;52.128;9.986;2023-03-13T13:04:25;21.50;96.50
12370;DHT22;6249;52.128;9.986;2023-03-13T13:07:55;21.40;96.60
12370;DHT22;6249;52.128;9.986;2023-03-13T13:14:58;21.20;97.20
12370;DHT22;6249;52.128;9.986;2023-03-13T13:18:29;21.40;97.50
12370;DHT22;6249;52.128;9.986;2023-03-13T13:25:52;22.20;95.60
12370;DHT22;6249;52.128;9.986;2023-03-13T13:32:38;20.80;96.70
12370;DHT22;6249;52.128;9.986;2023-03-13T13:39:36;20.60;97.50
12370;DHT22;6249;52.128;9.986;2023-03-13T13:43:03;20.50;97.60
12370;DHT22;6249;52.128;9.986;2023-03-13T13:49:56;19.80;98.50
12370;DHT22;6249;52.128;9.986;2023-03-13T13:53:30;19.20;99.70
12370;DHT22;6249;52.128;9.986;2023-03-13T13:56:59;19.10;99.90
12370;DHT22;6249;52.128;9.986;2023-03-13T14:00:57;19.70;99.30
12370;DHT22;6249;52.128;9.986;2023-03-13T14:04:39;19.40;99.90
12370;DHT22;6249;52.128;9.986;2023-03-13T14:08:31;19.60;99.80
12370;DHT22;6249;52.128;9.986;2023-03-13T14:11:56;20.90;98.40
12370;DHT22;6249;52.128;9.986;2023-03-13T14:15:18;21.40;96.60
12370;DHT22;6249;52.128;9.986;2023-03-13T14:18:43;21.30;96.80
12370;DHT22;6249;52.128;9.986;2023-03-13T14:22:10;21.80;96.40
12370;DHT22;6249;52.128;9.986;2023-03-13T14:29:35;23.00;94.20
12370;DHT22;6249;52.128;9.986;2023-03-13T14:32:57;22.60;93.80
12370;DHT22;6249;52.128;9.986;2023-03-13T14:36:17;22.10;95.20
12370;DHT22;6249;52.128;9.986;2023-03-13T14:39:43;21.10;95.00
12370;DHT22;6249;52.128;9.986;2023-03-13T14:44:01;22.40;95.70
12370;DHT22;6249;52.128;9.986;2023-03-13T14:47:03;22.80;95.40
12370;DHT22;6249;52.128;9.986;2023-03-13T14:50:24;22.80;95.00
12370;DHT22;6249;52.128;9.986;2023-03-13T14:53:59;22.90;95.30
12370;DHT22;6249;52.128;9.986;2023-03-13T14:57:23;21.70;96.20
12370;DHT22;6249;52.128;9.986;2023-03-13T15:00:46;20.40;99.40
12370;DHT22;6249;52.128;9.986;2023-03-13T15:04:07;19.30;99.90
12370;DHT22;6249;52.128;9.986;2023-03-13T15:11:00;21.30;99.60
12370;DHT22;6249;52.128;9.986;2023-03-13T15:17:50;21.70;98.00
12370;DHT22;6249;52.128;9.986;2023-03-13T15:24:36;20.20;99.90
12370;DHT22;6249;52.128;9.986;2023-03-13T15:27:59;19.10;99.90
12370;DHT22;6249;52.128;9.986;2023-03-13T15:31:25;18.50;99.90
12370;DHT22;6249;52.128;9.986;2023-03-13T15:34:46;18.10;99.90
12370;DHT22;6249;52.128;9.986;2023-03-13T15:38:18;17.80;99.90
12370;DHT22;6249;52.128;9.986;2023-03-13T15:41:44;17.60;99.90
12370;DHT22;6249;52.128;9.986;2023-03-13T15:45:07;17.40;99.90
12370;DHT22;6249;52.128;9.986;2023-03-13T15:48:28;17.30;99.90
12370;DHT22;6249;52.128;9.986;2023-03-13T15:51:51;17.30;99.90
12370;DHT22;6249;52.128;9.986;2023-03-13T15:55:13;17.30;99.90
12370;DHT22;6249;52.128;9.986;2023-03-13T15:58:34;17.30;99.90
12370;DHT22;6249;52.128;9.986;2023-03-13T16:01:54;17.40;99.90
12370;DHT22;6249;52.128;9.986;2023-03-13T16:05:15;17.30;99.90
12370;DHT22;6249;52.128;9.986;2023-03-13T16:08:36;17.50;99.90
12370;DHT22;6249;52.128;9.986;2023-03-13T16:11:57;17.50;99.90
12370;DHT22;6249;52.128;9.986;2023-03-13T16:15:18;17.30;99.90
12370;DHT22;6249;52.128;9.986;2023-03-13T16:18:38;17.20;99.90
12370;DHT22;6249;52.128;9.986;2023-03-13T16:22:03;17.00;99.90
12370;DHT22;6249;52.128;9.986;2023-03-13T16:25:26;16.80;99.90
12370;DHT22;6249;52.128;9.986;2023-03-13T16:28:48;16.70;99.90
12370;DHT22;6249;52.128;9.986;2023-03-13T16:32:15;16.60;99.90
12370;DHT22;6249;52.128;9.986;2023-03-13T16:35:36;16.30;99.90
12370;DHT22;6249;52.128;9.986;2023-03-13T16:39:02;16.00;99.90
12370;DHT22;6249;52.128;9.986;2023-03-13T16:42:22;15.80;99.90
12370;DHT22;6249;52.128;9.986;2023-03-13T16:45:43;15.50;99.90
12370;DHT22;6249;52.128;9.986;2023-03-13T16:49:04;15.40;99.90
12370;DHT22;6249;52.128;9.986;2023-03-13T16:52:25;15.30;99.90
12370;DHT22;6249;52.128;9.986;2023-03-13T16:55:48;15.30;99.90
12370;DHT22;6249;52.128;9.986;2023-03-13T16:59:16;15.20;99.90
12370;DHT22;6249;52.128;9.986;2023-03-13T17:02:39;15.30;99.90
12370;DHT22;6249;52.128;9.986;2023-03-13T17:06:00;15.20;99.90
12370;DHT22;6249;52.128;9.986;2023-03-13T17:09:21;15.30;99.90
12370;DHT22;6249;52.128;9.986;2023-03-13T17:12:41;15.20;99.90
12370;DHT22;6249;52.128;9.986;2023-03-13T17:16:02;15.20;99.90
12370;DHT22;6249;52.128;9.986;2023-03-13T17:19:22;15.10;99.90
12370;DHT22;6249;52.128;9.986;2023-03-13T17:22:45;15.00;99.90
12370;DHT22;6249;52.128;9.986;2023-03-13T17:29:36;14.90;99.90
12370;DHT22;6249;52.128;9.986;2023-03-13T17:33:01;14.90;99.90
12370;DHT22;6249;52.128;9.986;2023-03-13T17:36:24;14.80;99.90
12370;DHT22;6249;52.128;9.986;2023-03-13T17:39:48;14.70;99.90
12370;DHT22;6249;52.128;9.986;2023-03-13T17:43:10;14.50;99.90
12370;DHT22;6249;52.128;9.986;2023-03-13T17:49:58;14.40;99.90
12370;DHT22;6249;52.128;9.986;2023-03-13T17:53:19;14.30;99.90
12370;DHT22;6249;52.128;9.986;2023-03-13T17:56:40;14.30;99.90
12370;DHT22;6249;52.128;9.986;2023-03-13T18:00:04;14.40;99.90
12370;DHT22;6249;52.128;9.986;2023-03-13T18:03:32;14.40;99.90
12370;DHT22;6249;52.128;9.986;2023-03-13T18:06:54;14.40;99.90
12370;DHT22;6249;52.128;9.986;2023-03-13T18:13:35;14.40;99.90
12370;DHT22;6249;52.128;9.986;2023-03-13T18:16:58;14.40;99.90
12370;DHT22;6249;52.128;9.986;2023-03-13T18:20:22;14.50;99.90
12370;DHT22;6249;52.128;9.986;2023-03-13T18:23:43;14.40;99.90
12370;DHT22;6249;52.128;9.986;2023-03-13T18:27:12;14.50;99.90
12370;DHT22;6249;52.128;9.986;2023-03-13T18:30:33;14.50;99.90
12370;DHT22;6249;52.128;9.986;2023-03-13T18:34:02;14.50;99.90
12370;DHT22;6249;52.128;9.986;2023-03-13T18:37:27;14.50;99.90
12370;DHT22;6249;52.128;9.986;2023-03-13T18:40:49;14.40;99.90
12370;DHT22;6249;52.128;9.986;2023-03-13T18:44:10;14.40;99.90
12370;DHT22;6249;52.128;9.986;2023-03-13T18:47:34;14.30;99.90
12370;DHT22;6249;52.128;9.986;2023-03-13T18:50:55;14.30;99.90
12370;DHT22;6249;52.128;9.986;2023-03-13T18:54:16;14.20;99.90
12370;DHT22;6249;52.128;9.986;2023-03-13T18:57:39;14.30;99.90
12370;DHT22;6249;52.128;9.986;2023-03-13T19:01:00;14.30;99.90
12370;DHT22;6249;52.128;9.986;2023-03-13T19:04:23;14.30;99.90
12370;DHT22;6249;52.128;9.986;2023-03-13T19:07:44;14.30;99.90
12370;DHT22;6249;52.128;9.986;2023-03-13T19:11:04;14.00;99.90
12370;DHT22;6249;52.128;9.986;2023-03-13T19:14:25;14.00;99.90
12370;DHT22;6249;52.128;9.986;2023-03-13T19:17:48;14.00;99.90
12370;DHT22;6249;52.128;9.986;2023-03-13T19:21:23;14.00;99.90
12370;DHT22;6249;52.128;9.986;2023-03-13T19:24:44;14.00;99.90
12370;DHT22;6249;52.128;9.986;2023-03-13T19:28:08;14.00;99.90
12370;DHT22;6249;52.128;9.986;2023-03-13T19:31:29;13.80;99.90
12370;DHT22;6249;52.128;9.986;2023-03-13T19:34:49;13.60;99.90
12370;DHT22;6249;52.128;9.986;2023-03-13T19:38:13;13.80;99.90
12370;DHT22;6249;52.128;9.986;2023-03-13T19:41:36;14.60;99.90
12370;DHT22;6249;52.128;9.986;2023-03-13T19:45:00;13.50;99.90
12370;DHT22;6249;52.128;9.986;2023-03-13T19:48:20;13.50;99.90
12370;DHT22;6249;52.128;9.986;2023-03-13T19:51:41;13.50;99.90
12370;DHT22;6249;52.128;9.986;2023-03-13T19:55:02;13.50;99.90
12370;DHT22;6249;52.128;9.986;2023-03-13T19:58:25;13.50;99.90
12370;DHT22;6249;52.128;9.986;2023-03-13T20:01:46;13.60;99.90
12370;DHT22;6249;52.128;9.986;2023-03-13T20:05:09;13.50;99.90
12370;DHT22;6249;52.128;9.986;2023-03-13T20:08:29;13.50;99.90
12370;DHT22;6249;52.128;9.986;2023-03-13T20:11:53;13.50;99.90
12370;DHT22;6249;52.128;9.986;2023-03-13T20:15:14;13.60;99.90
12370;DHT22;6249;52.128;9.986;2023-03-13T20:18:35;13.50;99.90
12370;DHT22;6249;52.128;9.986;2023-03-13T20:21:58;13.50;99.90
12370;DHT22;6249;52.128;9.986;2023-03-13T20:25:22;13.40;99.90
12370;DHT22;6249;52.128;9.986;2023-03-13T20:28:48;13.40;99.90
12370;DHT22;6249;52.128;9.986;2023-03-13T20:32:09;13.40;99.90
12370;DHT22;6249;52.128;9.986;2023-03-13T20:35:30;13.30;99.90
12370;DHT22;6249;52.128;9.986;2023-03-13T20:38:54;13.30;99.90
12370;DHT22;6249;52.128;9.986;2023-03-13T20:42:19;13.30;99.90
12370;DHT22;6249;52.128;9.986;2023-03-13T20:45:41;13.40;99.90
12370;DHT22;6249;52.128;9.986;2023-03-13T20:49:06;13.40;99.90
12370;DHT22;6249;52.128;9.986;2023-03-13T20:52:28;13.40;99.90
12370;DHT22;6249;52.128;9.986;2023-03-13T20:55:50;13.50;99.90
12370;DHT22;6249;52.128;9.986;2023-03-13T20:59:10;13.50;99.90
12370;DHT22;6249;52.128;9.986;2023-03-13T21:02:31;13.40;99.90
12370;DHT22;6249;52.128;9.986;2023-03-13T21:05:54;13.50;99.90
12370;DHT22;6249;52.128;9.986;2023-03-13T21:09:15;13.50;99.90
12370;DHT22;6249;52.128;9.986;2023-03-13T21:12:35;13.40;99.90
12370;DHT22;6249;52.128;9.986;2023-03-13T21:16:00;13.40;99.90
12370;DHT22;6249;52.128;9.986;2023-03-13T21:19:23;13.40;99.90
12370;DHT22;6249;52.128;9.986;2023-03-13T21:22:46;13.30;99.90
12370;DHT22;6249;52.128;9.986;2023-03-13T21:26:09;13.30;99.90
12370;DHT22;6249;52.128;9.986;2023-03-13T21:29:30;13.30;99.90
12370;DHT22;6249;52.128;9.986;2023-03-13T21:32:53;13.30;99.90
12370;DHT22;6249;52.128;9.986;2023-03-13T21:36:15;13.40;99.90
12370;DHT22;6249;52.128;9.986;2023-03-13T21:39:36;13.30;99.90
12370;DHT22;6249;52.128;9.986;2023-03-13T21:43:05;13.30;99.90
12370;DHT22;6249;52.128;9.986;2023-03-13T21:46:28;13.20;99.90
12370;DHT22;6249;52.128;9.986;2023-03-13T21:49:53;13.00;99.90
12370;DHT22;6249;52.128;9.986;2023-03-13T21:53:14;12.80;99.90
12370;DHT22;6249;52.128;9.986;2023-03-13T21:56:34;12.90;99.90
12370;DHT22;6249;52.128;9.986;2023-03-13T21:59:55;12.90;99.90
12370;DHT22;6249;52.128;9.986;2023-03-13T22:03:16;12.80;99.90
12370;DHT22;6249;52.128;9.986;2023-03-13T22:06:36;12.80;99.90
12370;DHT22;6249;52.128;9.986;2023-03-13T22:09:57;12.70;99.90
12370;DHT22;6249;52.128;9.986;2023-03-13T22:13:20;12.80;99.90
12370;DHT22;6249;52.128;9.986;2023-03-13T22:16:41;12.70;99.90
12370;DHT22;6249;52.128;9.986;2023-03-13T22:20:02;12.50;99.90
12370;DHT22;6249;52.128;9.986;2023-03-13T22:23:28;12.40;99.90
12370;DHT22;6249;52.128;9.986;2023-03-13T22:26:48;12.40;99.90
12370;DHT22;6249;52.128;9.986;2023-03-13T22:30:10;12.50;99.90
12370;DHT22;6249;52.128;9.986;2023-03-13T22:33:31;12.40;99.90
12370;DHT22;6249;52.128;9.986;2023-03-13T22:36:52;12.40;99.90
12370;DHT22;6249;52.128;9.986;2023-03-13T22:40:13;12.20;99.90
12370;DHT22;6249;52.128;9.986;2023-03-13T22:43:35;12.10;99.90
12370;DHT22;6249;52.128;9.986;2023-03-13T22:46:56;12.00;99.90
12370;DHT22;6249;52.128;9.986;2023-03-13T22:50:17;11.90;99.90
12370;DHT22;6249;52.128;9.986;2023-03-13T22:53:44;11.80;99.90
12370;DHT22;6249;52.128;9.986;2023-03-13T22:57:05;11.80;99.90
12370;DHT22;6249;52.128;9.986;2023-03-13T23:00:30;11.90;99.90
12370;DHT22;6249;52.128;9.986;2023-03-13T23:03:53;11.90;99.90
12370;DHT22;6249;52.128;9.986;2023-03-13T23:07:14;12.00;99.90
12370;DHT22;6249;52.128;9.986;2023-03-13T23:10:35;11.90;99.90
12370;DHT22;6249;52.128;9.986;2023-03-13T23:13:56;12.60;99.90
12370;DHT22;6249;52.128;9.986;2023-03-13T23:17:17;11.80;99.90
12370;DHT22;6249;52.128;9.986;2023-03-13T23:20:37;11.90;99.90
12370;DHT22;6249;52.128;9.986;2023-03-13T23:23:58;11.90;99.90
12370;DHT22;6249;52.128;9.986;2023-03-13T23:27:19;11.90;99.90
12370;DHT22;6249;52.128;9.986;2023-03-13T23:30:44;12.00;99.90
12370;DHT22;6249;52.128;9.986;2023-03-13T23:34:04;12.20;99.90
12370;DHT22;6249;52.128;9.986;2023-03-13T23:37:25;12.20;99.90
12370;DHT22;6249;52.128;9.986;2023-03-13T23:40:46;12.50;99.90
12370;DHT22;6249;52.128;9.986;2023-03-13T23:44:06;12.50;99.90
12370;DHT22;6249;52.128;9.986;2023-03-13T23:47:29;12.70;99.90
12370;DHT22;6249;52.128;9.986;2023-03-13T23:50:52;12.60;99.90
12370;DHT22;6249;52.128;9.986;2023-03-13T23:54:13;12.60;99.90